< < Back
Terminal Aerodrome Forecast


Current Version              Previous Versions:   1  2  3  4  5  6  7  8  9  

Terminal Aerodrome Forecast

312
FTUS42 KGSP 220531
TAFCLT
TAF
KCLT 220531Z 2206/2306 36009KT P6SM BKN070
     FM220800 36009KT P6SM SCT070 BKN250
     FM221000 01010KT P6SM SCT250
     FM221700 35005KT P6SM FEW250=

Latest METAR

853
SAUS70 KWBC 221100 RRD
MTRCLT
METAR KCLT 221052Z 02007KT 10SM BKN060 14/05 A3015 RMK AO2 SLP204
T01390050 $


USA.gov is the U.S. government's official web portal to all federal, state and local government web resources and services.